createdAt,value
2023-01-15T00:01:53.409Z,99109.72
2023-01-15T00:04:19.919Z,99115.03
2023-01-15T00:06:46.454Z,99121.19
2023-01-15T00:09:15.686Z,99116.06
2023-01-15T00:11:42.816Z,99117.03
2023-01-15T00:14:09.652Z,99122.28
2023-01-15T00:16:36.310Z,99120.63
2023-01-15T00:19:04.602Z,99114.59
2023-01-15T00:21:31.794Z,99106.88
2023-01-15T00:24:17.052Z,99103.47
2023-01-15T00:27:02.080Z,99099.19
2023-01-15T00:29:28.620Z,99097.53
2023-01-15T00:32:00.605Z,99103.72
2023-01-15T00:34:28.015Z,99099.50
2023-01-15T00:36:54.731Z,99108.22
2023-01-15T00:39:21.326Z,99102.25
2023-01-15T00:41:48.032Z,99105.78
2023-01-15T00:44:15.522Z,99114.56
2023-01-15T00:46:43.127Z,99128.47
2023-01-15T00:49:09.752Z,99125.00
2023-01-15T00:51:36.544Z,99127.69
2023-01-15T00:54:03.410Z,99128.63
2023-01-15T00:56:30.124Z,99129.63
2023-01-15T00:58:57.481Z,99125.31
2023-01-15T01:01:24.464Z,99134.84
2023-01-15T01:03:52.991Z,99140.19
2023-01-15T01:06:22.987Z,99138.53
2023-01-15T01:08:49.817Z,99147.31
2023-01-15T01:11:20.641Z,99148.19
2023-01-15T01:13:47.593Z,99146.47
2023-01-15T01:16:26.482Z,99150.84
2023-01-15T01:18:54.487Z,99157.81
2023-01-15T01:21:21.488Z,99159.63
2023-01-15T01:23:48.277Z,99167.50
2023-01-15T01:26:14.721Z,99166.63
2023-01-15T01:28:42.472Z,99170.16
2023-01-15T01:31:09.918Z,99169.25
2023-01-15T01:33:36.603Z,99177.22
2023-01-15T01:36:03.917Z,99176.34
2023-01-15T01:38:30.652Z,99175.44
2023-01-15T01:40:57.177Z,99163.38
2023-01-15T01:43:29.841Z,99167.69
2023-01-15T01:45:56.714Z,99162.53
2023-01-15T01:48:29.043Z,99172.06
2023-01-15T01:51:00.264Z,99172.91
2023-01-15T01:53:30.750Z,99172.91
2023-01-15T01:55:58.476Z,99182.47
2023-01-15T01:58:29.703Z,99180.69
2023-01-15T02:00:57.014Z,99179.81
2023-01-15T02:03:28.017Z,99190.16
2023-01-15T02:05:58.349Z,99180.66
2023-01-15T02:08:25.115Z,99177.22
2023-01-15T02:10:55.847Z,99177.16
2023-01-15T02:13:40.843Z,99165.03
2023-01-15T02:16:26.471Z,99162.44
2023-01-15T02:19:05.439Z,99158.97
2023-01-15T02:21:59.639Z,99157.19
2023-01-15T02:25:05.904Z,99164.94
2023-01-15T02:27:34.222Z,99166.75
2023-01-15T02:30:06.499Z,99139.88
2023-01-15T02:33:00.527Z,99161.66
2023-01-15T02:35:38.149Z,99170.28
2023-01-15T02:38:09.055Z,99173.75
2023-01-15T02:40:38.198Z,99177.22
2023-01-15T02:43:07.245Z,99177.25
2023-01-15T02:45:39.085Z,99178.94
2023-01-15T02:48:17.896Z,99170.25
2023-01-15T02:51:01.466Z,99173.69
2023-01-15T02:53:31.165Z,99169.34
2023-01-15T02:56:05.356Z,99171.06
2023-01-15T02:58:41.115Z,99165.88
2023-01-15T03:01:20.073Z,99170.19
2023-01-15T03:04:02.428Z,99158.97
2023-01-15T03:06:35.081Z,99158.97
2023-01-15T03:09:03.029Z,99159.00
2023-01-15T03:11:34.582Z,99158.09
2023-01-15T03:14:07.247Z,99146.00
2023-01-15T03:16:39.851Z,99142.47
2023-01-15T03:19:28.389Z,99146.78
2023-01-15T03:22:16.095Z,99136.38
2023-01-15T03:24:57.297Z,99147.69
2023-01-15T03:27:24.505Z,99140.81
2023-01-15T03:30:02.839Z,99141.63
2023-01-15T03:32:31.389Z,99133.00
2023-01-15T03:34:58.802Z,99141.69
2023-01-15T03:37:28.037Z,99131.28
2023-01-15T03:39:56.741Z,99124.31
2023-01-15T03:42:24.854Z,99128.69
2023-01-15T03:45:10.513Z,99117.41
2023-01-15T03:47:39.684Z,99128.69
2023-01-15T03:50:37.378Z,99124.38
2023-01-15T03:53:14.787Z,99127.91
2023-01-15T03:55:54.423Z,99121.03
2023-01-15T03:58:29.637Z,99121.06
2023-01-15T04:01:01.612Z,99118.47
2023-01-15T04:03:33.000Z,99118.47
2023-01-15T04:06:01.802Z,99107.25
2023-01-15T04:08:33.390Z,99109.94
2023-01-15T04:11:02.269Z,99101.31
2023-01-15T04:13:37.557Z,99098.72
2023-01-15T04:16:04.509Z,99110.88
2023-01-15T04:18:31.095Z,99104.03
2023-01-15T04:20:57.674Z,99093.66
2023-01-15T04:23:24.335Z,99108.47
2023-01-15T04:25:50.839Z,99103.28
2023-01-15T04:28:17.305Z,99095.53
2023-01-15T04:30:44.137Z,99090.34
2023-01-15T04:33:11.366Z,99088.63
2023-01-15T04:35:38.727Z,99087.69
2023-01-15T04:38:05.209Z,99085.97
2023-01-15T04:41:03.745Z,99085.13
2023-01-15T04:43:48.775Z,99080.78
2023-01-15T04:46:15.285Z,99077.22
2023-01-15T04:48:41.766Z,99083.31
2023-01-15T04:51:08.190Z,99097.25
2023-01-15T04:53:34.739Z,99085.13
2023-01-15T04:56:02.279Z,99084.31
2023-01-15T04:58:29.408Z,99074.91
2023-01-15T05:00:56.516Z,99084.44
2023-01-15T05:03:23.133Z,99096.56
2023-01-15T05:05:50.648Z,99092.31
2023-01-15T05:08:17.067Z,99098.34
2023-01-15T05:10:43.622Z,99086.28
2023-01-15T05:13:10.363Z,99088.09
2023-01-15T05:15:38.409Z,99088.13
2023-01-15T05:18:05.010Z,99085.47
2023-01-15T05:20:31.471Z,99100.16
2023-01-15T05:22:58.102Z,99088.94
2023-01-15T05:25:24.618Z,99100.13
2023-01-15T05:27:51.170Z,99085.38
2023-01-15T05:30:17.936Z,99091.44
2023-01-15T05:32:44.453Z,99084.50
2023-01-15T05:35:10.975Z,99093.91
2023-01-15T05:37:37.410Z,99086.91
2023-01-15T05:40:04.264Z,99087.69
2023-01-15T05:42:31.097Z,99086.75
2023-01-15T05:44:57.538Z,99091.06
2023-01-15T05:47:24.042Z,99086.72
2023-01-15T05:49:50.801Z,99083.22
2023-01-15T05:52:17.267Z,99090.19
2023-01-15T05:54:43.882Z,99093.66
2023-01-15T05:57:12.819Z,99086.75
2023-01-15T05:59:39.548Z,99084.16
2023-01-15T06:02:06.092Z,99087.72
2023-01-15T06:04:32.659Z,99085.97
2023-01-15T06:06:59.385Z,99084.31
2023-01-15T06:09:29.809Z,99086.91
2023-01-15T06:11:57.912Z,99081.72
2023-01-15T06:14:24.600Z,99092.94
2023-01-15T06:16:51.206Z,99093.88
2023-01-15T06:19:17.796Z,99088.66
2023-01-15T06:21:44.591Z,99085.19
2023-01-15T06:24:11.225Z,99090.44
2023-01-15T06:26:39.536Z,99095.69
2023-01-15T06:29:06.029Z,99083.63
2023-01-15T06:31:32.626Z,99085.38
2023-01-15T06:33:59.417Z,99096.69
2023-01-15T06:36:27.364Z,99086.28
2023-01-15T06:38:53.938Z,99094.06
2023-01-15T06:41:41.677Z,99086.28
2023-01-15T06:44:35.504Z,99093.19
2023-01-15T06:47:21.068Z,99081.91
2023-01-15T06:49:57.018Z,99089.66
2023-01-15T06:52:26.005Z,99092.19
2023-01-15T06:54:52.482Z,99073.13
2023-01-15T06:57:19.284Z,99080.03
2023-01-15T06:59:46.415Z,99075.72
2023-01-15T07:02:12.824Z,99080.97
2023-01-15T07:04:39.407Z,99074.94
2023-01-15T07:07:06.181Z,99082.75
2023-01-15T07:09:32.718Z,99069.78
2023-01-15T07:11:59.388Z,99078.38
2023-01-15T07:14:28.160Z,99083.53
2023-01-15T07:16:55.703Z,99070.50
2023-01-15T07:19:22.414Z,99073.91
2023-01-15T07:21:49.015Z,99073.03
2023-01-15T07:24:17.030Z,99070.41
2023-01-15T07:26:45.405Z,99074.72
2023-01-15T07:29:12.250Z,99075.56
2023-01-15T07:31:39.250Z,99065.22
2023-01-15T07:34:06.355Z,99076.50
2023-01-15T07:36:33.036Z,99080.81
2023-01-15T07:38:59.761Z,99079.06
2023-01-15T07:41:44.990Z,99091.22
2023-01-15T07:44:30.915Z,99085.97
2023-01-15T07:47:16.598Z,99080.78
2023-01-15T07:49:46.527Z,99084.22
2023-01-15T07:52:20.370Z,99082.53
2023-01-15T07:54:48.236Z,99087.75
2023-01-15T07:57:17.873Z,99095.53
2023-01-15T07:59:44.376Z,99079.94
2023-01-15T08:02:12.075Z,99080.88
2023-01-15T08:04:38.725Z,99082.66
2023-01-15T08:07:06.125Z,99086.13
2023-01-15T08:09:32.838Z,99086.19
2023-01-15T08:12:22.301Z,99099.22
2023-01-15T08:15:13.438Z,99097.50
2023-01-15T08:17:42.812Z,99097.50
2023-01-15T08:20:15.582Z,99099.28
2023-01-15T08:22:44.636Z,99091.53
2023-01-15T08:25:16.654Z,99093.28
2023-01-15T08:27:46.826Z,99088.03
2023-01-15T08:30:19.842Z,99091.56
2023-01-15T08:32:47.717Z,99080.34
2023-01-15T08:35:14.828Z,99082.19
2023-01-15T08:37:42.716Z,99085.66
2023-01-15T08:40:11.157Z,99089.19
2023-01-15T08:42:37.743Z,99084.03
2023-01-15T08:45:04.606Z,99100.50
2023-01-15T08:47:32.428Z,99103.13
2023-01-15T08:49:59.188Z,99099.72
2023-01-15T08:52:26.121Z,99094.50
2023-01-15T08:54:52.794Z,99082.44
2023-01-15T08:57:19.420Z,99086.88
2023-01-15T08:59:47.743Z,99076.47
2023-01-15T09:02:15.438Z,99078.25
2023-01-15T09:04:42.266Z,99078.28
2023-01-15T09:07:09.092Z,99077.44
2023-01-15T09:09:36.122Z,99073.97
2023-01-15T09:12:02.835Z,99080.03
2023-01-15T09:14:59.774Z,99062.75
2023-01-15T09:17:16.321Z,99065.38
2023-01-15T09:19:42.813Z,99068.81
2023-01-15T09:22:09.335Z,99064.41
2023-01-15T09:24:36.230Z,99060.88
2023-01-15T09:27:03.009Z,99063.44
2023-01-15T09:29:32.257Z,99077.16
2023-01-15T09:31:58.947Z,99064.16
2023-01-15T09:34:25.709Z,99062.41
2023-01-15T09:36:52.128Z,99072.69
2023-01-15T09:39:18.728Z,99075.97
2023-01-15T09:42:06.677Z,99083.50
2023-01-15T09:44:46.601Z,99092.84
2023-01-15T09:47:18.709Z,99080.50
2023-01-15T09:50:22.972Z,99079.47
2023-01-15T09:52:51.601Z,99088.78
2023-01-15T09:55:19.545Z,99090.41
2023-01-15T09:57:50.892Z,99091.13
2023-01-15T10:00:20.627Z,99079.75
2023-01-15T10:03:42.724Z,99083.25
2023-01-15T10:06:15.507Z,99078.91
2023-01-15T10:08:47.092Z,99083.22
2023-01-15T10:11:16.391Z,99082.25
2023-01-15T10:13:51.827Z,99087.38
2023-01-15T10:16:30.585Z,99079.56
2023-01-15T10:18:58.898Z,99060.47
2023-01-15T10:22:03.881Z,99072.50
2023-01-15T10:24:39.479Z,99082.00
2023-01-15T10:27:22.709Z,99075.88
2023-01-15T10:30:17.742Z,99067.19
2023-01-15T10:33:01.913Z,99068.13
2023-01-15T10:35:36.380Z,99066.41
2023-01-15T10:38:16.167Z,99066.44
2023-01-15T10:41:11.902Z,99064.69
2023-01-15T10:44:08.713Z,99070.75
2023-01-15T10:46:40.010Z,99051.63
2023-01-15T10:49:17.910Z,99061.16
2023-01-15T10:51:48.360Z,99052.50
2023-01-15T10:54:19.976Z,99041.16
2023-01-15T10:57:06.070Z,99038.56
2023-01-15T10:59:56.490Z,99040.34
2023-01-15T11:02:25.768Z,99035.19
2023-01-15T11:04:53.512Z,99041.16
2023-01-15T11:07:24.154Z,99035.94
2023-01-15T11:09:51.417Z,99023.66
2023-01-15T11:12:47.972Z,99029.69
2023-01-15T11:15:40.601Z,99021.78
2023-01-15T11:18:34.089Z,99023.56
2023-01-15T11:21:02.447Z,99019.19
2023-01-15T11:23:36.208Z,99024.38
2023-01-15T11:26:03.828Z,99025.22
2023-01-15T11:28:35.386Z,99007.88
2023-01-15T11:31:02.915Z,99004.47
2023-01-15T11:33:32.073Z,98994.06
2023-01-15T11:36:01.571Z,98985.34
2023-01-15T11:38:44.259Z,98991.59
2023-01-15T11:41:21.962Z,98984.69
2023-01-15T11:44:17.081Z,98969.19
2023-01-15T11:47:05.150Z,98981.34
2023-01-15T11:49:50.351Z,98984.81
2023-01-15T11:52:20.415Z,98978.72
2023-01-15T11:54:51.244Z,98993.44
2023-01-15T11:57:32.783Z,98966.38
2023-01-15T11:59:59.912Z,98986.06
2023-01-15T12:02:43.533Z,98990.03
2023-01-15T12:05:24.688Z,98994.97
2023-01-15T12:07:55.402Z,98979.31
2023-01-15T12:10:46.275Z,99000.22
2023-01-15T12:13:29.977Z,98999.75
2023-01-15T12:16:22.375Z,98989.56
2023-01-15T12:19:12.013Z,98995.91
2023-01-15T12:21:53.907Z,98985.09
2023-01-15T12:24:37.367Z,98982.75
2023-01-15T12:27:16.278Z,98991.50
2023-01-15T12:29:56.218Z,98985.53
2023-01-15T12:32:29.494Z,98979.56
2023-01-15T12:35:02.612Z,98971.94
2023-01-15T12:37:40.480Z,98966.88
2023-01-15T12:40:26.314Z,98976.44
2023-01-15T12:43:15.742Z,98973.84
2023-01-15T12:45:49.634Z,98970.38
2023-01-15T12:48:32.049Z,98974.75
2023-01-15T12:51:02.104Z,98967.78
2023-01-15T12:53:41.435Z,98972.09
2023-01-15T12:56:43.271Z,98959.88
2023-01-15T12:59:36.917Z,98973.59
2023-01-15T13:02:28.240Z,98962.28
2023-01-15T13:05:20.023Z,98958.03
2023-01-15T13:08:03.550Z,98955.44
2023-01-15T13:10:34.658Z,98956.44
2023-01-15T13:13:16.821Z,98947.84
2023-01-15T13:16:00.480Z,98929.81
2023-01-15T13:18:37.315Z,98934.34
2023-01-15T13:21:08.989Z,98924.78
2023-01-15T13:24:07.565Z,98921.28
2023-01-15T13:26:36.710Z,98929.97
2023-01-15T13:29:34.420Z,98936.06
2023-01-15T13:32:09.850Z,98915.28
2023-01-15T13:34:42.435Z,98922.22
2023-01-15T13:37:21.114Z,98911.84
2023-01-15T13:39:49.858Z,98909.25
2023-01-15T13:42:32.609Z,98920.41
2023-01-15T13:45:03.680Z,98909.09
2023-01-15T13:47:34.780Z,98920.28
2023-01-15T13:50:16.379Z,98903.69
2023-01-15T13:52:43.464Z,98901.88
2023-01-15T13:55:16.042Z,98911.34
2023-01-15T13:57:43.243Z,98902.66
2023-01-15T14:00:31.597Z,98900.81
2023-01-15T14:03:03.767Z,98914.59
2023-01-15T14:05:35.680Z,98903.22
2023-01-15T14:08:14.706Z,98902.25
2023-01-15T14:10:41.338Z,98891.78
2023-01-15T14:13:15.556Z,98888.19
2023-01-15T14:15:55.402Z,98890.72
2023-01-15T14:18:40.786Z,98895.81
2023-01-15T14:21:20.858Z,98904.47
2023-01-15T14:24:16.623Z,98897.34
2023-01-15T14:27:15.369Z,98880.78
2023-01-15T14:29:49.779Z,98882.53
2023-01-15T14:33:01.120Z,98884.22
2023-01-15T14:35:28.959Z,98884.22
2023-01-15T14:38:03.778Z,98873.00
2023-01-15T14:40:34.499Z,98873.78
2023-01-15T14:43:15.544Z,98875.53
2023-01-15T14:45:46.641Z,98879.88
2023-01-15T14:48:28.414Z,98891.09
2023-01-15T14:51:08.442Z,98893.69
2023-01-15T14:53:50.847Z,98873.81
2023-01-15T14:56:25.131Z,98896.41
2023-01-15T14:59:09.793Z,98901.56
2023-01-15T15:01:48.720Z,98914.56
2023-01-15T15:04:21.418Z,98929.31
2023-01-15T15:06:55.753Z,98935.44
2023-01-15T15:09:31.146Z,98952.03
2023-01-15T15:12:24.944Z,98968.69
2023-01-15T15:15:05.001Z,98973.25
2023-01-15T15:17:43.215Z,98991.63
2023-01-15T15:20:24.841Z,99004.13
2023-01-15T15:22:56.440Z,98993.13
2023-01-15T15:25:27.225Z,99013.31
2023-01-15T15:28:05.240Z,99016.94
2023-01-15T15:30:35.642Z,98993.75
2023-01-15T15:33:05.984Z,99001.63
2023-01-15T15:35:34.517Z,99006.22
2023-01-15T15:38:04.920Z,99007.19
2023-01-15T15:40:36.538Z,99031.56
2023-01-15T15:43:46.562Z,99012.59
2023-01-15T15:46:48.160Z,99040.47
2023-01-15T15:49:15.723Z,99031.16
2023-01-15T15:51:53.318Z,99038.19
2023-01-15T15:54:28.326Z,99038.28
2023-01-15T15:57:03.705Z,99047.03
2023-01-15T15:59:31.805Z,99036.75
2023-01-15T16:02:07.458Z,99035.03
2023-01-15T16:04:35.599Z,99036.06
2023-01-15T16:07:12.399Z,99050.81
2023-01-15T16:09:39.965Z,99044.78
2023-01-15T16:12:07.226Z,99058.59
2023-01-15T16:14:36.519Z,99063.78
2023-01-15T16:17:03.151Z,99083.78
2023-01-15T16:19:30.678Z,99055.22
2023-01-15T16:21:57.328Z,99060.50
2023-01-15T16:24:27.160Z,99070.91
2023-01-15T16:27:01.668Z,99062.25
2023-01-15T16:29:33.781Z,99074.41
2023-01-15T16:32:01.251Z,99070.03
2023-01-15T16:34:33.795Z,99067.50
2023-01-15T16:37:01.819Z,99076.16
2023-01-15T16:39:31.383Z,99085.72
2023-01-15T16:41:59.429Z,99074.44
2023-01-15T16:44:44.134Z,99069.22
2023-01-15T16:47:23.427Z,99085.72
2023-01-15T16:49:50.563Z,99096.88
2023-01-15T16:52:44.347Z,99096.88
2023-01-15T16:55:37.108Z,99115.00
2023-01-15T16:58:12.787Z,99123.72
2023-01-15T17:00:44.856Z,99118.56
2023-01-15T17:03:19.147Z,99131.56
2023-01-15T17:05:48.706Z,99124.66
2023-01-15T17:08:21.082Z,99135.84
2023-01-15T17:11:00.537Z,99141.03
2023-01-15T17:13:40.821Z,99135.81
2023-01-15T17:16:13.492Z,99128.06
2023-01-15T17:18:40.789Z,99126.38
2023-01-15T17:21:13.878Z,99132.44
2023-01-15T17:23:42.802Z,99146.31
2023-01-15T17:26:17.018Z,99146.25
2023-01-15T17:28:43.574Z,99157.53
2023-01-15T17:31:20.477Z,99160.06
2023-01-15T17:33:47.230Z,99182.56
2023-01-15T17:36:13.701Z,99196.38
2023-01-15T17:38:40.399Z,99191.25
2023-01-15T17:41:10.884Z,99195.59
2023-01-15T17:43:37.419Z,99200.78
2023-01-15T17:46:04.179Z,99205.16
2023-01-15T17:48:31.389Z,99211.28
2023-01-15T17:51:06.491Z,99210.50
2023-01-15T17:53:35.886Z,99195.75
2023-01-15T17:56:22.372Z,99193.16
2023-01-15T17:59:07.779Z,99196.63
2023-01-15T18:01:57.234Z,99204.38
2023-01-15T18:04:47.638Z,99201.78
2023-01-15T18:07:15.847Z,99207.84
2023-01-15T18:09:43.454Z,99208.78
2023-01-15T18:12:10.139Z,99222.47
2023-01-15T18:14:36.676Z,99230.28
2023-01-15T18:17:03.422Z,99219.88
2023-01-15T18:19:30.224Z,99227.63
2023-01-15T18:21:56.868Z,99232.81
2023-01-15T18:24:23.764Z,99232.78
2023-01-15T18:26:51.910Z,99243.97
2023-01-15T18:29:19.656Z,99255.28
2023-01-15T18:31:46.404Z,99278.63
2023-01-15T18:34:13.023Z,99278.66
2023-01-15T18:36:41.330Z,99257.91
2023-01-15T18:39:12.472Z,99274.41
2023-01-15T18:41:39.981Z,99273.56
2023-01-15T18:44:29.801Z,99261.47
2023-01-15T18:46:58.951Z,99252.13
2023-01-15T18:49:26.139Z,99275.53
2023-01-15T18:52:11.051Z,99252.22
2023-01-15T18:54:38.013Z,99253.13
2023-01-15T18:57:07.064Z,99266.13
2023-01-15T18:59:33.567Z,99292.88
2023-01-15T19:02:00.491Z,99293.72
2023-01-15T19:04:27.203Z,99279.91
2023-01-15T19:06:53.920Z,99285.16
2023-01-15T19:09:21.375Z,99285.19
2023-01-15T19:11:47.901Z,99280.91
2023-01-15T19:14:33.385Z,99277.44
2023-01-15T19:17:18.781Z,99257.53
2023-01-15T19:19:45.476Z,99310.28
2023-01-15T19:22:31.105Z,99304.25
2023-01-15T19:24:57.549Z,99312.94
2023-01-15T19:27:24.041Z,99294.84
2023-01-15T19:29:50.876Z,99287.94
2023-01-15T19:32:17.386Z,99294.88
2023-01-15T19:34:43.943Z,99291.47
2023-01-15T19:37:10.867Z,99288.84
2023-01-15T19:39:37.356Z,99288.81
2023-01-15T19:42:22.746Z,99301.75
2023-01-15T19:45:08.026Z,99306.84
2023-01-15T19:47:57.034Z,99303.28
2023-01-15T19:50:35.496Z,99307.47
2023-01-15T19:53:02.802Z,99310.03
2023-01-15T19:55:31.455Z,99316.91
2023-01-15T19:58:03.280Z,99309.91
2023-01-15T20:00:37.158Z,99321.13
2023-01-15T20:03:05.794Z,99328.03
2023-01-15T20:05:32.518Z,99327.13
2023-01-15T20:07:59.633Z,99334.94
2023-01-15T20:10:28.682Z,99335.75
2023-01-15T20:13:13.791Z,99346.16
2023-01-15T20:15:42.690Z,99337.47
2023-01-15T20:18:09.493Z,99340.97
2023-01-15T20:20:37.217Z,99347.03
2023-01-15T20:23:04.402Z,99344.47
2023-01-15T20:25:31.478Z,99347.91
2023-01-15T20:28:02.339Z,99352.19
2023-01-15T20:30:29.731Z,99347.88
2023-01-15T20:33:00.278Z,99358.19
2023-01-15T20:35:31.384Z,99350.38
2023-01-15T20:37:58.471Z,99358.97
2023-01-15T20:40:26.180Z,99358.13
2023-01-15T20:43:26.395Z,99365.03
2023-01-15T20:45:52.900Z,99356.34
2023-01-15T20:48:38.368Z,99359.78
2023-01-15T20:51:12.369Z,99355.50
2023-01-15T20:53:40.710Z,99363.28
2023-01-15T20:56:13.524Z,99365.03
2023-01-15T20:58:41.049Z,99357.25
2023-01-15T21:01:11.139Z,99356.47
2023-01-15T21:03:38.898Z,99353.88
2023-01-15T21:06:07.636Z,99360.78
2023-01-15T21:08:35.771Z,99366.00
2023-01-15T21:11:03.399Z,99357.34
2023-01-15T21:13:31.121Z,99351.28
2023-01-15T21:16:06.145Z,99356.44
2023-01-15T21:18:35.726Z,99359.06
2023-01-15T21:21:08.468Z,99351.28
2023-01-15T21:23:34.997Z,99352.16
2023-01-15T21:26:01.809Z,99353.00
2023-01-15T21:28:29.465Z,99348.72
2023-01-15T21:30:56.412Z,99358.19
2023-01-15T21:33:22.989Z,99368.66
2023-01-15T21:35:49.787Z,99358.34
2023-01-15T21:38:16.603Z,99365.28
2023-01-15T21:40:43.188Z,99352.31
2023-01-15T21:43:29.308Z,99358.41
2023-01-15T21:46:06.151Z,99367.88
2023-01-15T21:48:33.439Z,99362.69
2023-01-15T21:51:04.140Z,99373.03
2023-01-15T21:53:32.244Z,99377.31
2023-01-15T21:55:58.797Z,99370.38
2023-01-15T21:58:26.014Z,99372.03
2023-01-15T22:00:52.709Z,99372.03
2023-01-15T22:03:21.795Z,99370.31
2023-01-15T22:05:48.286Z,99373.84
2023-01-15T22:08:16.494Z,99372.16
2023-01-15T22:10:42.979Z,99374.75
2023-01-15T22:13:09.828Z,99374.75
2023-01-15T22:15:36.577Z,99366.97
2023-01-15T22:18:02.986Z,99366.16
2023-01-15T22:20:29.843Z,99361.88
2023-01-15T22:22:56.577Z,99364.53
2023-01-15T22:25:23.129Z,99362.84
2023-01-15T22:27:49.836Z,99365.47
2023-01-15T22:30:16.771Z,99369.81
2023-01-15T22:32:43.508Z,99361.19
2023-01-15T22:35:10.671Z,99365.53
2023-01-15T22:37:37.184Z,99375.03
2023-01-15T22:40:07.059Z,99369.84
2023-01-15T22:42:33.668Z,99369.00
2023-01-15T22:45:04.012Z,99377.72
2023-01-15T22:47:33.762Z,99376.03
2023-01-15T22:50:00.792Z,99371.81
2023-01-15T22:52:27.351Z,99375.31
2023-01-15T22:54:53.973Z,99379.78
2023-01-15T22:57:22.273Z,99382.41
2023-01-15T22:59:50.406Z,99375.56
2023-01-15T23:02:17.655Z,99376.41
2023-01-15T23:04:44.599Z,99374.69
2023-01-15T23:07:13.688Z,99370.41
2023-01-15T23:09:40.582Z,99370.47
2023-01-15T23:12:07.302Z,99373.09
2023-01-15T23:14:33.869Z,99384.41
2023-01-15T23:17:00.889Z,99381.91
2023-01-15T23:19:28.078Z,99375.00
2023-01-15T23:21:55.254Z,99371.59
2023-01-15T23:24:21.694Z,99381.09
2023-01-15T23:26:48.183Z,99383.72
2023-01-15T23:29:15.018Z,99384.59
2023-01-15T23:31:41.729Z,99375.03
2023-01-15T23:34:08.476Z,99383.66
2023-01-15T23:36:35.397Z,99388.84
2023-01-15T23:39:02.648Z,99386.22
2023-01-15T23:41:47.757Z,99387.94
2023-01-15T23:44:38.198Z,99385.31
2023-01-15T23:47:06.201Z,99383.56
2023-01-15T23:49:32.747Z,99384.41
2023-01-15T23:51:59.669Z,99386.09
2023-01-15T23:54:28.746Z,99391.19
2023-01-15T23:56:56.615Z,99384.28
2023-01-15T23:59:23.395Z,99384.28
